Time;durP1;ratioP1;P1;durP2;ratioP2;P2;SDS_P1;SDS_P2;PMS_P1;PMS_P2;Temp;Humidity;BMP_temperature;BMP_pressure;BME280_temperature;BME280_humidity;BME280_pressure;Samples;Min_cycle;Max_cycle;Signal;HPM_P1;HPM_P2
2024/01/29 00:02:02;;;;;;;2.28;1.50;;;6.30;68.60;;;;;;5039015;28;20079;-68
2024/01/29 00:04:28;;;;;;;8.18;2.03;;;6.30;68.70;;;;;;5034191;28;20033;-69
2024/01/29 00:06:54;;;;;;;1.52;1.15;;;6.30;68.80;;;;;;5032043;28;20038;-69
2024/01/29 00:09:20;;;;;;;2.50;1.15;;;6.20;68.80;;;;;;5035497;28;20013;-69
2024/01/29 00:11:45;;;;;;;2.17;1.00;;;6.20;68.80;;;;;;5031849;28;20108;-69
2024/01/29 00:14:11;;;;;;;2.17;1.55;;;6.10;68.80;;;;;;5032339;28;20378;-68
2024/01/29 00:16:37;;;;;;;2.58;1.27;;;6.10;68.90;;;;;;5034678;28;20048;-67
2024/01/29 00:19:03;;;;;;;4.20;1.70;;;6.10;69.10;;;;;;5036369;28;20049;-67
2024/01/29 00:21:29;;;;;;;2.00;1.38;;;6.10;69.10;;;;;;5032385;28;20047;-67
2024/01/29 00:23:56;;;;;;;1.98;1.48;;;6.10;69.10;;;;;;5031147;28;20025;-69
2024/01/29 00:26:22;;;;;;;2.63;0.98;;;6.00;69.20;;;;;;5048486;28;20053;-69
2024/01/29 00:28:47;;;;;;;3.15;1.23;;;6.00;69.40;;;;;;5033111;28;20025;-68
2024/01/29 00:31:14;;;;;;;1.92;1.42;;;6.00;69.50;;;;;;5038725;28;20034;-69
2024/01/29 00:33:40;;;;;;;2.13;1.83;;;6.00;69.30;;;;;;5031358;28;20086;-67
2024/01/29 00:36:06;;;;;;;4.80;1.17;;;6.00;69.30;;;;;;5040171;28;20037;-67
2024/01/29 00:38:32;;;;;;;2.50;1.30;;;6.00;69.40;;;;;;5028305;28;20560;-68
2024/01/29 00:40:57;;;;;;;2.67;1.73;;;6.00;69.40;;;;;;5010553;28;20120;-69
2024/01/29 00:43:23;;;;;;;1.02;0.90;;;6.00;69.40;;;;;;5044212;28;20029;-68
2024/01/29 00:45:49;;;;;;;1.88;0.65;;;6.00;69.50;;;;;;5032300;28;20041;-69
2024/01/29 00:48:15;;;;;;;2.13;1.20;;;6.00;69.50;;;;;;5034380;28;20445;-68
2024/01/29 00:50:40;;;;;;;1.55;1.20;;;6.00;69.50;;;;;;5032923;28;20071;-68
2024/01/29 00:53:06;;;;;;;1.17;0.93;;;6.10;69.50;;;;;;5033730;28;20032;-67
2024/01/29 00:55:32;;;;;;;2.45;1.30;;;6.20;69.50;;;;;;5031748;28;20049;-67
2024/01/29 00:57:57;;;;;;;1.67;1.10;;;6.30;69.30;;;;;;5037658;28;20630;-68
2024/01/29 01:00:23;;;;;;;2.85;1.45;;;6.40;69.20;;;;;;5029980;28;20025;-67
2024/01/29 01:02:49;;;;;;;1.50;1.13;;;6.40;69.10;;;;;;5031312;28;20117;-67
2024/01/29 01:05:14;;;;;;;2.08;1.13;;;6.40;69.20;;;;;;5031275;28;20155;-67
2024/01/29 01:07:40;;;;;;;1.50;0.95;;;6.30;69.10;;;;;;5044686;28;20180;-69
2024/01/29 01:10:07;;;;;;;2.40;1.10;;;6.40;69.10;;;;;;5041217;28;20041;-66
2024/01/29 01:12:32;;;;;;;1.85;1.33;;;6.40;69.20;;;;;;5030992;28;20029;-69
2024/01/29 01:14:58;;;;;;;2.10;1.42;;;6.40;69.10;;;;;;5023897;28;20045;-69
2024/01/29 01:17:24;;;;;;;2.58;1.40;;;6.40;69.10;;;;;;5032392;28;20041;-69
2024/01/29 01:19:51;;;;;;;2.17;1.55;;;6.30;69.10;;;;;;5031055;28;20041;-69
2024/01/29 01:22:16;;;;;;;1.17;1.00;;;6.30;69.20;;;;;;5032236;28;20511;-69
2024/01/29 01:24:42;;;;;;;2.83;1.80;;;6.20;69.20;;;;;;5032399;28;20018;-69
2024/01/29 01:27:09;;;;;;;0.82;0.82;;;6.10;69.30;;;;;;5032639;28;20082;-69
2024/01/29 01:29:34;;;;;;;2.53;1.40;;;6.10;69.40;;;;;;5044542;28;20029;-69
2024/01/29 01:32:00;;;;;;;1.77;1.17;;;6.10;69.40;;;;;;5025384;28;20104;-68
2024/01/29 01:34:26;;;;;;;2.40;1.23;;;6.00;69.50;;;;;;5025099;28;20025;-69
2024/01/29 01:36:52;;;;;;;2.47;1.08;;;6.00;69.60;;;;;;5029470;28;20151;-69
2024/01/29 01:39:17;;;;;;;1.48;1.23;;;5.90;69.80;;;;;;5031864;28;20026;-68
2024/01/29 01:41:52;;;;;;;3.03;1.45;;;5.90;69.80;;;;;;5030841;28;20365;-69
2024/01/29 01:44:18;;;;;;;4.50;1.75;;;5.90;69.80;;;;;;5029654;28;20113;-69
2024/01/29 01:46:43;;;;;;;1.17;1.00;;;5.90;69.70;;;;;;5036908;28;20457;-69
2024/01/29 01:49:10;;;;;;;3.65;1.25;;;5.80;69.70;;;;;;5037217;28;20029;-69
2024/01/29 01:51:37;;;;;;;1.30;1.10;;;5.80;69.90;;;;;;5030540;28;20535;-68
2024/01/29 01:54:04;;;;;;;1.70;1.15;;;5.80;69.90;;;;;;5034363;28;20018;-68
2024/01/29 01:56:31;;;;;;;2.58;1.33;;;5.70;70.00;;;;;;5031709;28;20053;-68
2024/01/29 01:58:59;;;;;;;1.23;1.13;;;5.70;70.60;;;;;;5038451;28;20039;-68
2024/01/29 02:01:25;;;;;;;2.53;1.63;;;5.70;70.00;;;;;;5035478;28;20091;-68
2024/01/29 02:03:51;;;;;;;1.77;1.17;;;5.60;70.00;;;;;;5033004;28;20040;-68
2024/01/29 02:06:16;;;;;;;1.80;1.30;;;5.60;70.10;;;;;;5070513;28;20037;-69
2024/01/29 02:08:42;;;;;;;1.30;1.20;;;5.50;70.20;;;;;;5036169;28;20017;-68
2024/01/29 02:11:08;;;;;;;2.20;1.40;;;5.50;70.20;;;;;;5030600;28;20488;-67
2024/01/29 02:13:34;;;;;;;5.07;1.75;;;5.50;70.30;;;;;;5036308;28;20033;-68
2024/01/29 02:16:02;;;;;;;1.70;1.40;;;5.50;70.50;;;;;;5035160;28;20033;-69
2024/01/29 02:18:29;;;;;;;1.85;1.05;;;5.40;70.50;;;;;;5038706;28;20348;-69
2024/01/29 02:20:55;;;;;;;5.63;1.85;;;5.40;70.60;;;;;;5034011;28;20014;-70
2024/01/29 02:23:20;;;;;;;1.38;1.10;;;5.40;70.60;;;;;;5037899;28;20113;-69
2024/01/29 02:25:46;;;;;;;1.85;1.10;;;5.40;70.60;;;;;;5035907;28;20137;-69
2024/01/29 02:28:12;;;;;;;2.92;1.65;;;5.40;70.60;;;;;;5034112;28;20057;-70
2024/01/29 02:30:38;;;;;;;3.00;1.15;;;5.40;70.70;;;;;;5033631;28;20155;-69
2024/01/29 02:33:04;;;;;;;1.85;1.20;;;5.40;70.70;;;;;;5034138;28;20025;-68
2024/01/29 02:35:30;;;;;;;2.35;1.23;;;5.30;70.60;;;;;;5047301;28;20068;-69
2024/01/29 02:37:55;;;;;;;2.72;1.20;;;5.30;70.70;;;;;;5032422;28;20416;-68
2024/01/29 02:40:21;;;;;;;2.05;1.08;;;5.30;70.80;;;;;;5038749;28;20117;-68
2024/01/29 02:42:47;;;;;;;5.78;1.45;;;5.30;70.90;;;;;;5036701;28;20037;-68
2024/01/29 02:45:13;;;;;;;1.15;1.05;;;5.20;70.90;;;;;;5034202;28;20547;-68
2024/01/29 02:47:39;;;;;;;1.00;0.75;;;5.20;71.00;;;;;;5031491;28;20163;-68
2024/01/29 02:50:05;;;;;;;1.58;1.23;;;5.10;71.10;;;;;;5061456;28;20128;-68
2024/01/29 02:52:31;;;;;;;1.95;1.50;;;5.20;71.20;;;;;;5037950;28;20427;-68
2024/01/29 02:54:57;;;;;;;2.08;1.42;;;5.10;71.30;;;;;;5036428;28;20033;-68
2024/01/29 02:57:24;;;;;;;2.65;1.30;;;5.10;71.30;;;;;;5033109;28;20038;-68
2024/01/29 02:59:53;;;;;;;1.40;1.20;;;5.10;71.40;;;;;;5030521;28;20017;-68
2024/01/29 03:02:19;;;;;;;2.45;1.50;;;5.10;71.40;;;;;;5032839;28;20061;-69
2024/01/29 03:04:45;;;;;;;1.67;1.10;;;5.00;71.40;;;;;;5033249;28;20803;-69
2024/01/29 03:07:11;;;;;;;1.38;1.00;;;5.10;71.50;;;;;;5032609;28;20112;-69
2024/01/29 03:09:36;;;;;;;3.53;1.17;;;5.00;71.40;;;;;;5036399;28;20032;-68
2024/01/29 03:12:03;;;;;;;2.13;1.48;;;5.00;71.40;;;;;;5024794;28;20104;-68
2024/01/29 03:14:28;;;;;;;1.90;1.35;;;5.00;71.40;;;;;;5035627;28;20025;-68
2024/01/29 03:16:55;;;;;;;2.00;1.27;;;5.00;71.50;;;;;;5033814;28;20389;-68
2024/01/29 03:19:21;;;;;;;1.83;1.25;;;5.00;71.50;;;;;;5030763;28;20060;-69
2024/01/29 03:21:47;;;;;;;3.05;0.73;;;4.90;71.60;;;;;;5031430;28;20097;-68
2024/01/29 03:24:13;;;;;;;2.78;1.83;;;4.90;71.70;;;;;;5032270;28;20314;-69
2024/01/29 03:26:39;;;;;;;2.58;1.98;;;4.90;71.60;;;;;;5032312;28;20037;-69
2024/01/29 03:29:04;;;;;;;1.40;1.20;;;4.90;71.70;;;;;;5032406;28;20033;-68
2024/01/29 03:31:30;;;;;;;3.33;1.25;;;4.90;71.80;;;;;;5032853;28;20142;-68
2024/01/29 03:33:56;;;;;;;3.63;1.38;;;4.90;72.00;;;;;;5033238;28;20586;-68
2024/01/29 03:36:22;;;;;;;1.90;1.20;;;4.80;72.00;;;;;;5032067;28;20057;-69
2024/01/29 03:38:47;;;;;;;2.45;1.80;;;4.80;72.10;;;;;;5031803;28;20041;-70
2024/01/29 03:41:13;;;;;;;4.00;1.40;;;4.80;72.20;;;;;;5032612;28;20041;-69
2024/01/29 03:43:39;;;;;;;1.40;1.17;;;4.70;72.20;;;;;;5022593;28;20412;-67
2024/01/29 03:46:04;;;;;;;2.08;1.50;;;4.70;72.30;;;;;;5033183;28;20036;-68
2024/01/29 03:48:30;;;;;;;1.65;1.42;;;4.70;72.30;;;;;;5029932;28;20408;-68
2024/01/29 03:50:56;;;;;;;1.55;1.17;;;4.70;72.30;;;;;;5033605;28;20029;-69
2024/01/29 03:53:22;;;;;;;3.72;1.27;;;4.70;72.30;;;;;;5032708;28;20108;-69
2024/01/29 03:55:47;;;;;;;1.83;1.50;;;4.70;72.30;;;;;;5039052;28;20053;-69
2024/01/29 03:58:14;;;;;;;2.75;1.88;;;4.70;72.30;;;;;;5035777;28;20025;-68
2024/01/29 04:00:40;;;;;;;2.33;1.60;;;4.70;72.30;;;;;;5032714;28;20091;-68
2024/01/29 04:03:06;;;;;;;2.85;1.92;;;4.70;72.30;;;;;;5036750;28;20033;-67
2024/01/29 04:05:33;;;;;;;1.80;1.40;;;4.70;72.30;;;;;;5029202;28;20037;-68
2024/01/29 04:08:01;;;;;;;2.25;1.40;;;4.60;72.30;;;;;;5031981;28;20444;-68
2024/01/29 04:10:27;;;;;;;1.88;0.93;;;4.60;72.40;;;;;;5032254;28;20057;-69
2024/01/29 04:12:53;;;;;;;2.92;1.45;;;4.60;72.40;;;;;;5033131;28;20481;-69
2024/01/29 04:15:19;;;;;;;4.25;2.00;;;4.60;72.40;;;;;;5035340;28;20026;-69
2024/01/29 04:17:44;;;;;;;3.53;1.45;;;4.60;72.50;;;;;;5034712;28;20040;-69
2024/01/29 04:20:10;;;;;;;2.10;1.30;;;4.60;72.50;;;;;;5040001;28;20283;-68
2024/01/29 04:22:36;;;;;;;2.50;1.42;;;4.50;72.50;;;;;;5038458;28;20053;-68
2024/01/29 04:25:04;;;;;;;1.75;1.25;;;4.50;72.40;;;;;;5034840;28;20432;-68
2024/01/29 04:27:30;;;;;;;5.40;1.67;;;4.60;72.50;;;;;;5033131;28;20061;-68
2024/01/29 04:29:56;;;;;;;2.08;0.95;;;4.60;72.50;;;;;;5039198;28;20025;-68
2024/01/29 04:32:22;;;;;;;3.78;1.58;;;4.50;72.50;;;;;;5034830;28;20037;-68
2024/01/29 04:34:48;;;;;;;2.00;1.45;;;4.50;72.50;;;;;;5028006;28;20033;-68
2024/01/29 04:37:14;;;;;;;2.20;1.38;;;4.50;72.60;;;;;;5030347;28;20041;-69
2024/01/29 04:39:40;;;;;;;1.38;1.15;;;4.50;72.60;;;;;;5031206;28;20025;-69
2024/01/29 04:42:07;;;;;;;3.05;1.35;;;4.50;72.70;;;;;;5038242;28;20512;-69
2024/01/29 04:44:33;;;;;;;2.25;1.13;;;4.50;72.70;;;;;;5034994;28;20025;-68
2024/01/29 04:46:59;;;;;;;2.28;1.13;;;4.50;72.70;;;;;;5040422;28;20026;-69
2024/01/29 04:49:25;;;;;;;1.35;1.25;;;4.40;72.70;;;;;;5035900;28;20481;-68
2024/01/29 04:51:50;;;;;;;2.35;1.42;;;4.40;72.70;;;;;;5068137;28;20025;-68
2024/01/29 04:54:16;;;;;;;1.20;1.00;;;4.40;72.80;;;;;;5034588;28;20033;-68
2024/01/29 04:56:42;;;;;;;1.52;1.10;;;4.40;72.90;;;;;;5036571;28;20099;-67
2024/01/29 04:59:07;;;;;;;1.30;1.05;;;4.40;72.90;;;;;;5032800;28;20432;-68
2024/01/29 05:01:33;;;;;;;2.50;1.50;;;4.40;72.90;;;;;;5039763;28;20091;-67
2024/01/29 05:03:59;;;;;;;1.67;1.38;;;4.40;72.90;;;;;;5029049;28;20034;-68
2024/01/29 05:06:25;;;;;;;2.35;1.60;;;4.40;72.90;;;;;;5034019;28;20378;-67
2024/01/29 05:08:51;;;;;;;2.13;1.30;;;4.40;73.00;;;;;;5029664;28;20026;-67
2024/01/29 05:11:16;;;;;;;2.42;1.50;;;4.40;73.10;;;;;;5030842;28;20025;-67
2024/01/29 05:13:43;;;;;;;2.40;1.13;;;4.30;73.80;;;;;;5029214;28;20551;-69
2024/01/29 05:16:10;;;;;;;1.38;1.08;;;4.30;73.20;;;;;;5031571;28;20053;-68
2024/01/29 05:18:36;;;;;;;1.35;1.20;;;4.30;73.20;;;;;;5035404;28;20032;-68
2024/01/29 05:21:06;;;;;;;2.08;1.60;;;4.30;73.30;;;;;;5033533;28;20029;-69
2024/01/29 05:23:32;;;;;;;1.50;1.05;;;4.30;73.30;;;;;;5033074;28;20021;-69
2024/01/29 05:25:57;;;;;;;2.35;1.25;;;4.20;73.40;;;;;;5030778;28;20103;-69
2024/01/29 05:28:23;;;;;;;2.55;1.30;;;4.20;73.40;;;;;;5061758;28;20041;-67
2024/01/29 05:30:51;;;;;;;2.85;1.30;;;4.20;73.30;;;;;;5030450;28;20534;-67
2024/01/29 05:33:17;;;;;;;3.65;1.92;;;4.20;73.40;;;;;;5032864;28;20021;-67
2024/01/29 05:35:43;;;;;;;2.97;1.70;;;4.20;73.40;;;;;;5041354;28;20556;-67
2024/01/29 05:38:09;;;;;;;1.55;1.23;;;4.20;73.40;;;;;;5033541;28;20037;-67
2024/01/29 05:40:34;;;;;;;4.20;1.63;;;4.20;73.50;;;;;;5035739;28;20033;-67
2024/01/29 05:43:00;;;;;;;3.47;1.60;;;4.10;73.50;;;;;;5035891;28;20481;-69
2024/01/29 05:45:26;;;;;;;1.88;1.10;;;4.10;73.60;;;;;;5038035;28;20077;-69
2024/01/29 05:47:52;;;;;;;3.88;1.63;;;4.10;73.60;;;;;;5037830;28;20037;-67
2024/01/29 05:50:17;;;;;;;2.40;1.67;;;4.10;73.70;;;;;;5059103;28;20117;-68
2024/01/29 05:52:43;;;;;;;1.45;1.30;;;4.10;73.80;;;;;;5033340;28;20020;-68
2024/01/29 05:55:09;;;;;;;1.50;1.30;;;4.10;73.90;;;;;;5040013;28;20112;-67
2024/01/29 05:57:35;;;;;;;3.00;1.70;;;4.00;73.90;;;;;;5036363;28;20111;-68
2024/01/29 06:00:03;;;;;;;1.10;1.00;;;4.00;74.10;;;;;;5066063;28;20026;-67
2024/01/29 06:02:28;;;;;;;2.92;1.05;;;4.00;74.10;;;;;;5032155;28;20024;-68
2024/01/29 06:04:54;;;;;;;2.42;1.00;;;4.00;74.20;;;;;;5033523;28;20022;-67
2024/01/29 06:07:20;;;;;;;1.30;1.05;;;4.00;74.20;;;;;;5031799;28;20025;-67
2024/01/29 06:09:45;;;;;;;1.98;1.60;;;4.10;74.20;;;;;;5033856;28;20087;-68
2024/01/29 06:12:11;;;;;;;1.98;1.30;;;4.10;74.10;;;;;;5036838;28;20025;-68
2024/01/29 06:14:36;;;;;;;3.47;1.83;;;4.10;74.10;;;;;;5037234;28;20464;-69
2024/01/29 06:17:02;;;;;;;2.78;1.50;;;4.10;74.30;;;;;;5034682;28;20041;-68
2024/01/29 06:19:30;;;;;;;1.60;1.27;;;4.10;74.40;;;;;;5037044;28;20096;-68
2024/01/29 06:21:55;;;;;;;1.73;1.30;;;4.10;74.40;;;;;;5033502;28;20111;-68
2024/01/29 06:24:21;;;;;;;8.45;2.88;;;4.20;74.40;;;;;;5030351;28;20563;-66
2024/01/29 06:26:46;;;;;;;1.73;1.17;;;4.20;74.40;;;;;;5031333;28;20408;-66
2024/01/29 06:29:12;;;;;;;1.80;1.25;;;4.30;74.30;;;;;;5032797;28;20496;-67
2024/01/29 06:31:39;;;;;;;5.00;1.52;;;4.30;74.30;;;;;;5018051;28;20468;-66
2024/01/29 06:34:05;;;;;;;3.05;1.83;;;4.30;74.30;;;;;;5033466;28;20492;-67
2024/01/29 06:36:31;;;;;;;1.40;1.23;;;4.30;74.50;;;;;;5037657;28;20072;-66
2024/01/29 06:38:58;;;;;;;1.60;1.25;;;4.30;74.60;;;;;;5037397;28;20565;-67
2024/01/29 06:41:25;;;;;;;2.55;1.48;;;4.20;74.70;;;;;;5032527;28;20504;-66
2024/01/29 06:43:54;;;;;;;3.13;1.50;;;4.30;74.80;;;;;;5039210;28;20026;-66
2024/01/29 06:46:20;;;;;;;2.47;1.35;;;4.30;74.90;;;;;;5013546;28;20523;-66
2024/01/29 06:48:46;;;;;;;1.70;1.58;;;4.30;74.80;;;;;;5029929;28;20033;-66
2024/01/29 06:51:14;;;;;;;3.97;2.28;;;4.30;74.80;;;;;;5029929;28;20404;-66
2024/01/29 06:53:40;;;;;;;3.03;1.52;;;4.30;74.90;;;;;;5029627;28;20386;-66
2024/01/29 06:56:06;;;;;;;2.33;1.55;;;4.30;75.00;;;;;;5032552;28;20024;-66
2024/01/29 06:58:32;;;;;;;4.00;1.80;;;4.30;75.50;;;;;;5035684;28;20029;-66
2024/01/29 07:01:01;;;;;;;1.83;1.33;;;4.40;75.00;;;;;;5035417;28;20625;-66
2024/01/29 07:03:27;;;;;;;2.17;1.17;;;4.30;74.90;;;;;;5033604;28;20510;-68
2024/01/29 07:05:54;;;;;;;2.83;1.73;;;4.30;75.00;;;;;;5026974;28;20025;-66
2024/01/29 07:08:19;;;;;;;2.20;1.35;;;4.30;75.00;;;;;;5044303;28;20028;-66
2024/01/29 07:10:45;;;;;;;1.55;1.15;;;4.30;74.90;;;;;;5038054;28;20108;-66
2024/01/29 07:13:11;;;;;;;2.25;1.50;;;4.30;75.00;;;;;;5038298;28;20076;-67
2024/01/29 07:15:38;;;;;;;1.80;1.65;;;4.30;75.20;;;;;;5036497;28;20045;-67
2024/01/29 07:18:04;;;;;;;1.92;1.42;;;4.30;75.40;;;;;;5036536;28;20021;-67
2024/01/29 07:20:37;;;;;;;3.13;1.73;;;4.30;75.50;;;;;;5046250;28;20033;-67
2024/01/29 07:23:03;;;;;;;2.92;1.60;;;4.20;75.60;;;;;;5032241;28;20388;-67
2024/01/29 07:25:29;;;;;;;2.60;1.70;;;4.30;75.80;;;;;;5031667;28;20060;-67
2024/01/29 07:27:56;;;;;;;6.22;2.53;;;4.30;75.90;;;;;;5031878;28;20084;-67
2024/01/29 07:30:22;;;;;;;4.50;2.17;;;4.30;76.00;;;;;;5034719;28;20091;-66
2024/01/29 07:32:47;;;;;;;3.13;1.55;;;4.30;76.60;;;;;;5029255;28;20108;-66
2024/01/29 07:35:13;;;;;;;2.92;2.13;;;4.30;76.10;;;;;;5030285;28;20603;-66
2024/01/29 07:37:40;;;;;;;1.90;1.35;;;4.30;76.10;;;;;;5038203;28;20037;-66
2024/01/29 07:40:08;;;;;;;2.03;1.42;;;4.30;76.20;;;;;;5030634;28;20104;-66
2024/01/29 07:42:33;;;;;;;2.00;1.55;;;4.30;76.30;;;;;;5034471;28;20395;-67
2024/01/29 07:44:59;;;;;;;2.97;1.90;;;4.40;76.40;;;;;;5034530;28;20032;-67
2024/01/29 07:47:26;;;;;;;2.38;1.58;;;4.40;76.40;;;;;;5034530;28;20610;-67
2024/01/29 07:49:51;;;;;;;6.20;2.40;;;4.40;76.40;;;;;;5036236;28;20037;-66
2024/01/29 07:52:17;;;;;;;5.90;2.10;;;4.50;76.40;;;;;;5031895;28;20029;-66
2024/01/29 07:54:43;;;;;;;4.22;1.50;;;4.50;76.50;;;;;;5032043;28;20581;-67
2024/01/29 07:57:08;;;;;;;7.57;2.33;;;4.50;76.40;;;;;;5036079;28;20036;-69
2024/01/29 07:59:34;;;;;;;1.88;1.33;;;4.60;76.40;;;;;;5028846;28;20239;-66
2024/01/29 08:02:00;;;;;;;1.77;1.33;;;4.70;76.30;;;;;;5030723;28;20045;-67
2024/01/29 08:04:26;;;;;;;2.05;1.45;;;4.70;76.30;;;;;;5035229;28;20038;-66
2024/01/29 08:06:52;;;;;;;2.65;1.75;;;4.70;76.10;;;;;;5035402;28;20444;-66
2024/01/29 08:09:18;;;;;;;2.90;1.77;;;4.80;76.10;;;;;;5036326;28;20025;-67
2024/01/29 08:11:44;;;;;;;2.33;1.58;;;4.80;76.10;;;;;;5018230;28;20033;-66
2024/01/29 08:14:10;;;;;;;1.73;1.48;;;4.90;76.20;;;;;;5028392;28;20427;-67
2024/01/29 08:16:36;;;;;;;2.28;2.05;;;4.90;76.10;;;;;;5030854;28;20034;-65
2024/01/29 08:19:02;;;;;;;3.67;2.22;;;5.00;76.10;;;;;;5021259;28;20038;-65
2024/01/29 08:21:28;;;;;;;3.25;1.80;;;5.10;76.10;;;;;;5034289;28;20040;-66
2024/01/29 08:23:53;;;;;;;2.30;1.52;;;5.10;76.00;;;;;;5029995;28;20076;-65
2024/01/29 08:26:19;;;;;;;3.90;1.73;;;5.20;76.00;;;;;;5028704;28;20053;-65
2024/01/29 08:28:44;;;;;;;2.38;1.50;;;5.20;76.00;;;;;;5031864;28;20060;-66
2024/01/29 08:31:10;;;;;;;5.93;2.30;;;5.30;76.00;;;;;;5028516;28;20412;-68
2024/01/29 08:33:36;;;;;;;2.30;2.10;;;5.40;75.90;;;;;;5029085;28;20462;-66
2024/01/29 08:36:02;;;;;;;1.95;1.30;;;5.50;75.90;;;;;;5032640;28;20444;-66
2024/01/29 08:38:27;;;;;;;2.45;1.45;;;5.60;75.90;;;;;;5031186;28;20111;-65
2024/01/29 08:40:54;;;;;;;3.65;1.75;;;5.70;75.80;;;;;;5034138;28;20061;-66
2024/01/29 08:43:20;;;;;;;2.17;1.38;;;5.80;75.60;;;;;;5032553;28;20033;-68
2024/01/29 08:45:46;;;;;;;2.35;1.40;;;5.90;75.50;;;;;;5021030;28;20034;-68
2024/01/29 08:48:12;;;;;;;1.77;1.20;;;6.00;75.40;;;;;;5056644;28;20038;-68
2024/01/29 08:50:38;;;;;;;1.85;1.15;;;6.20;75.20;;;;;;5025737;28;20149;-68
2024/01/29 08:53:03;;;;;;;4.03;2.10;;;6.30;74.90;;;;;;5032159;28;20083;-68
2024/01/29 08:55:30;;;;;;;5.05;2.35;;;6.40;75.30;;;;;;5033855;28;20033;-68
2024/01/29 08:57:56;;;;;;;3.05;1.20;;;6.60;75.40;;;;;;5029186;28;20029;-68
2024/01/29 09:00:22;;;;;;;3.28;1.70;;;6.70;75.10;;;;;;5025618;28;20082;-67
2024/01/29 09:02:52;;;;;;;1.80;1.50;;;6.90;75.00;;;;;;5024492;28;20029;-65
2024/01/29 09:05:18;;;;;;;3.10;2.05;;;7.00;74.80;;;;;;5028743;28;20053;-64
2024/01/29 09:07:43;;;;;;;3.25;2.58;;;7.20;74.70;;;;;;5032728;28;20068;-67
2024/01/29 09:10:09;;;;;;;2.35;1.73;;;7.30;74.80;;;;;;5029517;28;20083;-68
2024/01/29 09:12:35;;;;;;;3.72;1.88;;;7.40;74.60;;;;;;5029701;28;20056;-68
2024/01/29 09:15:04;;;;;;;3.95;1.60;;;7.50;74.70;;;;;;5030423;28;20026;-66
2024/01/29 09:17:30;;;;;;;5.35;1.98;;;7.60;74.30;;;;;;5029223;28;20056;-68
2024/01/29 09:19:56;;;;;;;3.50;1.67;;;7.70;74.10;;;;;;5028464;28;20029;-68
2024/01/29 09:22:22;;;;;;;3.15;1.95;;;7.70;74.10;;;;;;5034108;28;20037;-68
2024/01/29 09:24:48;;;;;;;2.65;2.05;;;7.80;74.10;;;;;;5031098;28;20041;-68
2024/01/29 09:27:13;;;;;;;2.20;1.02;;;7.80;74.10;;;;;;5040872;28;20062;-69
2024/01/29 09:29:40;;;;;;;2.33;1.60;;;7.90;74.00;;;;;;5027174;28;20029;-68
2024/01/29 09:32:10;;;;;;;1.33;1.20;;;8.00;73.80;;;;;;5024499;28;20041;-66
2024/01/29 09:34:36;;;;;;;3.13;1.70;;;8.00;73.90;;;;;;5022453;28;20018;-66
2024/01/29 09:37:01;;;;;;;2.55;1.55;;;8.10;73.80;;;;;;5031247;28;20478;-66
2024/01/29 09:39:27;;;;;;;2.42;1.50;;;8.20;73.60;;;;;;5031289;28;20112;-66
2024/01/29 09:42:02;;;;;;;1.98;1.35;;;8.30;73.40;;;;;;5028047;28;20057;-66
2024/01/29 09:44:33;;;;;;;2.90;1.42;;;8.40;73.40;;;;;;5026272;28;20104;-66
2024/01/29 09:47:00;;;;;;;2.95;1.10;;;8.50;73.20;;;;;;5026663;28;20949;-66
2024/01/29 09:49:26;;;;;;;2.53;1.20;;;8.60;73.10;;;;;;5026772;28;20623;-66
2024/01/29 09:51:53;;;;;;;2.47;1.38;;;8.70;72.80;;;;;;5032823;28;20057;-66
2024/01/29 09:54:19;;;;;;;3.05;1.70;;;8.80;72.70;;;;;;5028170;28;20112;-67
2024/01/29 09:56:45;;;;;;;4.20;2.08;;;8.90;72.70;;;;;;5029289;28;20040;-66
2024/01/29 09:59:11;;;;;;;3.05;2.13;;;9.00;72.70;;;;;;5024181;28;20652;-68
2024/01/29 10:01:37;;;;;;;5.78;2.20;;;9.10;72.50;;;;;;5030965;28;20026;-69
2024/01/29 10:04:04;;;;;;;2.33;1.70;;;9.20;72.40;;;;;;5028650;28;20545;-68
2024/01/29 10:06:30;;;;;;;2.92;1.98;;;9.30;72.20;;;;;;5037194;28;20033;-66
2024/01/29 10:08:57;;;;;;;3.50;2.72;;;9.40;72.10;;;;;;5025386;28;20046;-68
2024/01/29 10:11:24;;;;;;;3.13;2.10;;;9.50;71.70;;;;;;5059802;28;20788;-69
2024/01/29 10:14:00;;;;;;;3.92;1.75;;;9.60;71.70;;;;;;5024799;28;20923;-68
2024/01/29 10:16:30;;;;;;;2.58;1.95;;;9.80;71.60;;;;;;5021899;28;20021;-68
2024/01/29 10:18:59;;;;;;;6.40;2.22;;;9.90;71.30;;;;;;5026086;28;20033;-68
2024/01/29 10:21:26;;;;;;;2.42;1.58;;;10.10;71.00;;;;;;5025075;28;20087;-66
2024/01/29 10:23:58;;;;;;;3.22;1.73;;;10.20;70.80;;;;;;5031556;28;20524;-68
2024/01/29 10:26:24;;;;;;;;;;;10.40;70.50;;;;;;5026267;28;20061;-68
2024/01/29 10:29:02;;;;;;;5.97;2.95;;;10.40;70.20;;;;;;5025926;28;19928;-68
2024/01/29 10:31:29;;;;;;;6.90;2.70;;;10.40;69.90;;;;;;5023351;28;20034;-68
2024/01/29 10:33:55;;;;;;;3.53;2.17;;;10.40;70.00;;;;;;5028389;28;20056;-66
2024/01/29 10:36:21;;;;;;;4.55;2.30;;;10.40;70.00;;;;;;5030145;28;20099;-66
2024/01/29 10:38:48;;;;;;;7.75;2.83;;;10.40;69.90;;;;;;5025364;28;20037;-66
2024/01/29 10:41:17;;;;;;;4.97;2.13;;;10.40;69.90;;;;;;5024282;28;20091;-66
2024/01/29 10:43:47;;;;;;;3.47;2.15;;;10.40;69.90;;;;;;5029979;28;20038;-66
2024/01/29 10:46:22;;;;;;;4.10;1.95;;;10.50;70.00;;;;;;5061835;28;20014;-66
2024/01/29 10:48:53;;;;;;;5.18;1.90;;;10.50;69.90;;;;;;5020410;28;20022;-66
2024/01/29 10:51:20;;;;;;;5.25;2.00;;;10.60;69.80;;;;;;5024853;28;20121;-66
2024/01/29 10:53:48;;;;;;;7.05;2.50;;;10.70;69.70;;;;;;5023603;28;20029;-66
2024/01/29 10:56:16;;;;;;;6.00;2.58;;;10.70;69.60;;;;;;5032084;28;20116;-66
2024/01/29 10:58:41;;;;;;;4.70;2.40;;;10.90;69.70;;;;;;5033727;28;20128;-66
2024/01/29 11:01:10;;;;;;;5.05;2.03;;;11.10;69.40;;;;;;5029676;28;20120;-66
2024/01/29 11:03:37;;;;;;;5.53;3.22;;;11.20;68.80;;;;;;5029925;28;20116;-66
2024/01/29 11:06:12;;;;;;;3.63;2.33;;;11.40;68.70;;;;;;5025107;28;20418;-66
2024/01/29 11:08:40;;;;;;;6.85;2.78;;;11.60;68.50;;;;;;5026183;28;20029;-66
2024/01/29 11:11:06;;;;;;;4.30;2.45;;;11.80;68.10;;;;;;5033271;28;20118;-66
2024/01/29 11:13:33;;;;;;;3.47;1.95;;;12.20;67.60;;;;;;5039756;28;20029;-66
2024/01/29 11:15:59;;;;;;;3.85;2.15;;;12.90;66.30;;;;;;5033197;28;20047;-66
2024/01/29 11:18:24;;;;;;;3.05;2.17;;;13.90;64.00;;;;;;5043118;28;20504;-67
2024/01/29 11:20:51;;;;;;;3.72;1.90;;;15.10;61.40;;;;;;5039298;28;20060;-67
2024/01/29 11:23:22;;;;;;;3.55;1.92;;;16.30;58.70;;;;;;5036480;28;20053;-67
2024/01/29 11:25:49;;;;;;;4.35;2.47;;;17.40;55.40;;;;;;5033760;28;20508;-67
2024/01/29 11:28:15;;;;;;;4.47;2.70;;;18.40;53.60;;;;;;5034574;28;20127;-67
2024/01/29 11:30:49;;;;;;;8.05;3.83;;;19.40;52.60;;;;;;5038016;28;20121;-67
2024/01/29 11:33:18;;;;;;;5.45;2.25;;;20.50;48.60;;;;;;5038955;28;20048;-67
2024/01/29 11:35:56;;;;;;;4.13;2.70;;;20.90;47.80;;;;;;5036730;28;20029;-67
2024/01/29 11:38:23;;;;;;;5.05;2.60;;;21.20;47.40;;;;;;5032870;28;20544;-67
2024/01/29 11:40:49;;;;;;;4.85;2.55;;;21.10;46.20;;;;;;5032611;28;20060;-68
2024/01/29 11:43:17;;;;;;;4.03;2.33;;;20.60;46.70;;;;;;5042247;28;20056;-68
2024/01/29 11:45:51;;;;;;;3.28;1.92;;;20.50;46.90;;;;;;5039491;28;20499;-68
2024/01/29 11:48:18;;;;;;;7.35;2.42;;;20.90;46.50;;;;;;5030007;28;20566;-67
2024/01/29 11:50:55;;;;;;;4.57;2.70;;;21.60;45.80;;;;;;5033304;28;20025;-68
2024/01/29 11:53:25;;;;;;;2.85;1.95;;;22.70;44.20;;;;;;5031781;28;20029;-68
2024/01/29 11:55:52;;;;;;;4.53;3.10;;;23.40;43.00;;;;;;5032768;28;20049;-68
2024/01/29 11:58:20;;;;;;;3.55;2.35;;;23.60;42.40;;;;;;5027673;28;20556;-67
2024/01/29 12:00:46;;;;;;;5.47;2.95;;;24.00;41.60;;;;;;5027004;28;20021;-68
2024/01/29 12:03:24;;;;;;;3.25;2.13;;;23.50;41.30;;;;;;5022945;28;20548;-67
2024/01/29 12:05:53;;;;;;;3.33;2.42;;;22.80;43.00;;;;;;5022834;28;20021;-67
2024/01/29 12:08:20;;;;;;;4.97;3.10;;;22.40;43.00;;;;;;5025000;28;20033;-68
2024/01/29 12:10:47;;;;;;;5.53;2.95;;;21.80;43.80;;;;;;5023508;28;20040;-67
2024/01/29 12:13:19;;;;;;;4.80;2.70;;;21.60;44.30;;;;;;5024152;28;20029;-67
2024/01/29 12:15:46;;;;;;;3.97;2.60;;;21.40;44.60;;;;;;5020352;28;20029;-67
2024/01/29 12:18:18;;;;;;;4.82;3.13;;;21.20;45.00;;;;;;5025391;28;20502;-67
2024/01/29 12:20:44;;;;;;;3.03;2.35;;;21.00;45.80;;;;;;5025605;28;20054;-67
2024/01/29 12:23:10;;;;;;;5.65;2.90;;;21.10;45.80;;;;;;5022171;28;20079;-68
2024/01/29 12:25:36;;;;;;;3.42;2.10;;;20.90;46.00;;;;;;5028327;28;20099;-67
2024/01/29 12:28:09;;;;;;;3.00;2.10;;;20.40;46.40;;;;;;5026737;28;20045;-67
2024/01/29 12:30:35;;;;;;;3.97;2.08;;;20.10;47.30;;;;;;5025985;28;20792;-67
2024/01/29 12:33:01;;;;;;;4.00;2.10;;;19.90;47.70;;;;;;5024958;28;20477;-67
2024/01/29 12:35:31;;;;;;;6.72;2.72;;;19.90;48.00;;;;;;5028298;28;20351;-67
2024/01/29 12:38:05;;;;;;;3.70;2.60;;;20.00;48.20;;;;;;5020991;28;20072;-67
2024/01/29 12:40:31;;;;;;;3.15;1.98;;;20.30;47.30;;;;;;5017770;28;20030;-67
2024/01/29 12:43:04;;;;;;;5.88;2.78;;;20.50;47.00;;;;;;5026197;28;20394;-67
2024/01/29 12:45:31;;;;;;;3.00;2.10;;;20.40;46.60;;;;;;5028577;28;20026;-67
2024/01/29 12:48:10;;;;;;;3.05;2.40;;;20.10;47.00;;;;;;5019245;28;20061;-67
2024/01/29 12:50:40;;;;;;;3.45;2.83;;;19.80;47.80;;;;;;5027822;28;20025;-67
2024/01/29 12:53:10;;;;;;;4.93;2.58;;;19.70;48.40;;;;;;5029681;28;20040;-67